sensor_id;sensor_type;location;lat;lon;timestamp;pressure;altitude;pressure_sealevel;temperature;humidity
67697;BME280;54486;51.442;6.778;2022-12-18T00:01:20;102745.38;;;-4.46;91.07
67697;BME280;54486;51.442;6.778;2022-12-18T00:03:48;102748.72;;;-4.47;91.08
67697;BME280;54486;51.442;6.778;2022-12-18T00:06:16;102754.31;;;-4.41;91.18
67697;BME280;54486;51.442;6.778;2022-12-18T00:08:44;102755.81;;;-4.43;91.07
67697;BME280;54486;51.442;6.778;2022-12-18T00:11:14;102759.41;;;-4.41;91.36
67697;BME280;54486;51.442;6.778;2022-12-18T00:13:42;102767.69;;;-4.34;91.38
67697;BME280;54486;51.442;6.778;2022-12-18T00:16:12;102761.72;;;-4.34;91.34
67697;BME280;54486;51.442;6.778;2022-12-18T00:18:40;102766.19;;;-4.32;91.14
67697;BME280;54486;51.442;6.778;2022-12-18T00:21:09;102751.16;;;-4.29;91.20
67697;BME280;54486;51.442;6.778;2022-12-18T00:23:38;102744.91;;;-4.22;90.91
67697;BME280;54486;51.442;6.778;2022-12-18T00:26:09;102748.47;;;-4.20;90.68
67697;BME280;54486;51.442;6.778;2022-12-18T00:28:37;102739.81;;;-4.12;90.65
67697;BME280;54486;51.442;6.778;2022-12-18T00:31:07;102729.97;;;-4.17;90.59
67697;BME280;54486;51.442;6.778;2022-12-18T00:33:35;102732.16;;;-4.22;90.62
67697;BME280;54486;51.442;6.778;2022-12-18T00:36:03;102737.25;;;-4.22;90.65
67697;BME280;54486;51.442;6.778;2022-12-18T00:38:31;102735.47;;;-4.23;90.85
67697;BME280;54486;51.442;6.778;2022-12-18T00:40:58;102733.91;;;-4.21;90.70
67697;BME280;54486;51.442;6.778;2022-12-18T00:43:26;102734.97;;;-4.19;90.50
67697;BME280;54486;51.442;6.778;2022-12-18T00:45:53;102737.50;;;-4.19;90.52
67697;BME280;54486;51.442;6.778;2022-12-18T00:48:21;102744.38;;;-4.18;90.43
67697;BME280;54486;51.442;6.778;2022-12-18T00:50:49;102748.34;;;-4.21;90.63
67697;BME280;54486;51.442;6.778;2022-12-18T00:53:16;102746.16;;;-4.17;90.70
67697;BME280;54486;51.442;6.778;2022-12-18T00:55:45;102739.03;;;-4.31;90.39
67697;BME280;54486;51.442;6.778;2022-12-18T00:58:15;102747.19;;;-4.35;90.26
67697;BME280;54486;51.442;6.778;2022-12-18T01:00:44;102743.34;;;-4.40;90.13
67697;BME280;54486;51.442;6.778;2022-12-18T01:03:13;102739.13;;;-4.50;89.97
67697;BME280;54486;51.442;6.778;2022-12-18T01:05:41;102755.59;;;-4.56;90.11
67697;BME280;54486;51.442;6.778;2022-12-18T01:08:09;102751.00;;;-4.60;90.25
67697;BME280;54486;51.442;6.778;2022-12-18T01:10:36;102749.94;;;-4.62;90.41
67697;BME280;54486;51.442;6.778;2022-12-18T01:13:03;102747.53;;;-4.71;90.18
67697;BME280;54486;51.442;6.778;2022-12-18T01:15:30;102741.53;;;-4.71;90.21
67697;BME280;54486;51.442;6.778;2022-12-18T01:17:57;102735.69;;;-4.70;89.89
67697;BME280;54486;51.442;6.778;2022-12-18T01:20:24;102739.88;;;-4.71;89.82
67697;BME280;54486;51.442;6.778;2022-12-18T01:22:51;102732.63;;;-4.76;90.07
67697;BME280;54486;51.442;6.778;2022-12-18T01:25:17;102731.34;;;-4.71;89.85
67697;BME280;54486;51.442;6.778;2022-12-18T01:27:44;102721.16;;;-4.71;90.08
67697;BME280;54486;51.442;6.778;2022-12-18T01:30:11;102731.84;;;-4.65;90.09
67697;BME280;54486;51.442;6.778;2022-12-18T01:32:38;102732.13;;;-4.62;89.93
67697;BME280;54486;51.442;6.778;2022-12-18T01:35:06;102736.44;;;-4.71;89.66
67697;BME280;54486;51.442;6.778;2022-12-18T01:37:33;102728.31;;;-4.67;89.55
67697;BME280;54486;51.442;6.778;2022-12-18T01:40:00;102731.38;;;-4.61;89.27
67697;BME280;54486;51.442;6.778;2022-12-18T01:42:27;102729.69;;;-4.71;88.53
67697;BME280;54486;51.442;6.778;2022-12-18T01:49:55;102724.44;;;-4.93;88.80
67697;BME280;54486;51.442;6.778;2022-12-18T01:52:26;102730.78;;;-4.98;88.71
67697;BME280;54486;51.442;6.778;2022-12-18T01:54:55;102735.50;;;-5.02;88.99
67697;BME280;54486;51.442;6.778;2022-12-18T01:57:24;102743.00;;;-4.94;88.91
67697;BME280;54486;51.442;6.778;2022-12-18T01:59:54;102735.53;;;-4.92;89.01
67697;BME280;54486;51.442;6.778;2022-12-18T02:02:23;102737.28;;;-4.91;88.95
67697;BME280;54486;51.442;6.778;2022-12-18T02:04:53;102735.16;;;-4.76;88.83
67697;BME280;54486;51.442;6.778;2022-12-18T02:11:08;102738.69;;;-4.85;89.62
67697;BME280;54486;51.442;6.778;2022-12-18T02:16:18;102741.16;;;-4.76;89.58
67697;BME280;54486;51.442;6.778;2022-12-18T02:18:51;102738.22;;;-4.70;89.82
67697;BME280;54486;51.442;6.778;2022-12-18T02:24:29;102734.44;;;-4.55;89.97
67697;BME280;54486;51.442;6.778;2022-12-18T02:27:03;102727.56;;;-4.56;89.96
67697;BME280;54486;51.442;6.778;2022-12-18T02:29:46;102718.38;;;-4.54;90.17
67697;BME280;54486;51.442;6.778;2022-12-18T02:32:30;102713.66;;;-4.50;89.97
67697;BME280;54486;51.442;6.778;2022-12-18T02:34:59;102714.81;;;-4.46;90.24
67697;BME280;54486;51.442;6.778;2022-12-18T02:37:29;102713.56;;;-4.41;90.24
67697;BME280;54486;51.442;6.778;2022-12-18T02:39:58;102714.31;;;-4.32;90.31
67697;BME280;54486;51.442;6.778;2022-12-18T02:42:27;102726.31;;;-4.31;89.93
67697;BME280;54486;51.442;6.778;2022-12-18T02:44:54;102728.31;;;-4.27;90.38
67697;BME280;54486;51.442;6.778;2022-12-18T02:47:23;102727.06;;;-4.22;90.05
67697;BME280;54486;51.442;6.778;2022-12-18T03:01:14;102725.78;;;-4.27;90.16
67697;BME280;54486;51.442;6.778;2022-12-18T03:03:47;102731.75;;;-4.27;90.01
67697;BME280;54486;51.442;6.778;2022-12-18T03:06:23;102734.97;;;-4.29;90.36
67697;BME280;54486;51.442;6.778;2022-12-18T03:08:56;102722.72;;;-4.33;90.05
67697;BME280;54486;51.442;6.778;2022-12-18T03:11:28;102716.22;;;-4.40;90.45
67697;BME280;54486;51.442;6.778;2022-12-18T03:14:16;102713.91;;;-4.37;90.31
67697;BME280;54486;51.442;6.778;2022-12-18T03:16:49;102703.88;;;-4.35;90.00
67697;BME280;54486;51.442;6.778;2022-12-18T03:19:21;102703.38;;;-4.41;90.23
67697;BME280;54486;51.442;6.778;2022-12-18T03:21:56;102706.91;;;-4.39;90.34
67697;BME280;54486;51.442;6.778;2022-12-18T03:24:26;102705.13;;;-4.40;90.21
67697;BME280;54486;51.442;6.778;2022-12-18T03:27:00;102700.03;;;-4.40;90.14
67697;BME280;54486;51.442;6.778;2022-12-18T03:32:05;102699.28;;;-4.39;90.49
67697;BME280;54486;51.442;6.778;2022-12-18T03:34:37;102708.06;;;-4.36;90.14
67697;BME280;54486;51.442;6.778;2022-12-18T03:37:06;102707.19;;;-4.36;90.53
67697;BME280;54486;51.442;6.778;2022-12-18T03:39:35;102702.34;;;-4.33;90.38
67697;BME280;54486;51.442;6.778;2022-12-18T03:42:16;102707.69;;;-4.30;90.23
67697;BME280;54486;51.442;6.778;2022-12-18T03:47:56;102695.19;;;-4.27;90.41
67697;BME280;54486;51.442;6.778;2022-12-18T03:50:39;102694.94;;;-4.20;90.37
67697;BME280;54486;51.442;6.778;2022-12-18T03:53:10;102689.59;;;-4.13;89.96
67697;BME280;54486;51.442;6.778;2022-12-18T03:55:42;102698.72;;;-4.05;90.22
67697;BME280;54486;51.442;6.778;2022-12-18T03:58:13;102696.97;;;-3.96;90.22
67697;BME280;54486;51.442;6.778;2022-12-18T04:00:44;102692.97;;;-3.92;89.96
67697;BME280;54486;51.442;6.778;2022-12-18T04:03:13;102689.91;;;-3.88;89.87
67697;BME280;54486;51.442;6.778;2022-12-18T04:05:42;102684.41;;;-3.83;89.70
67697;BME280;54486;51.442;6.778;2022-12-18T04:08:09;102674.44;;;-3.80;89.94
67697;BME280;54486;51.442;6.778;2022-12-18T04:10:37;102685.41;;;-3.70;89.75
67697;BME280;54486;51.442;6.778;2022-12-18T04:13:04;102686.41;;;-3.68;89.15
67697;BME280;54486;51.442;6.778;2022-12-18T04:15:34;102678.75;;;-3.68;89.11
67697;BME280;54486;51.442;6.778;2022-12-18T04:18:02;102686.78;;;-3.64;89.13
67697;BME280;54486;51.442;6.778;2022-12-18T04:20:29;102686.16;;;-3.61;88.64
67697;BME280;54486;51.442;6.778;2022-12-18T04:22:56;102683.06;;;-3.57;89.13
67697;BME280;54486;51.442;6.778;2022-12-18T04:25:23;102688.19;;;-3.57;89.01
67697;BME280;54486;51.442;6.778;2022-12-18T04:27:50;102689.03;;;-3.57;88.86
67697;BME280;54486;51.442;6.778;2022-12-18T04:30:17;102690.72;;;-3.57;88.91
67697;BME280;54486;51.442;6.778;2022-12-18T04:32:44;102681.00;;;-3.51;88.80
67697;BME280;54486;51.442;6.778;2022-12-18T04:35:17;102686.63;;;-3.55;88.57
67697;BME280;54486;51.442;6.778;2022-12-18T04:37:44;102683.06;;;-3.57;88.93
67697;BME280;54486;51.442;6.778;2022-12-18T04:40:12;102671.31;;;-3.55;88.88
67697;BME280;54486;51.442;6.778;2022-12-18T04:42:40;102673.34;;;-3.51;88.70
67697;BME280;54486;51.442;6.778;2022-12-18T04:45:07;102674.88;;;-3.53;89.03
67697;BME280;54486;51.442;6.778;2022-12-18T04:47:35;102671.31;;;-3.55;88.98
67697;BME280;54486;51.442;6.778;2022-12-18T04:50:03;102669.53;;;-3.56;88.76
67697;BME280;54486;51.442;6.778;2022-12-18T04:52:30;102675.53;;;-3.56;88.74
67697;BME280;54486;51.442;6.778;2022-12-18T04:54:57;102677.66;;;-3.50;88.44
67697;BME280;54486;51.442;6.778;2022-12-18T04:57:24;102670.31;;;-3.57;88.48
67697;BME280;54486;51.442;6.778;2022-12-18T04:59:51;102669.28;;;-3.59;88.80
67697;BME280;54486;51.442;6.778;2022-12-18T05:02:18;102671.75;;;-3.61;88.87
67697;BME280;54486;51.442;6.778;2022-12-18T05:04:46;102666.63;;;-3.61;88.77
67697;BME280;54486;51.442;6.778;2022-12-18T05:07:13;102658.34;;;-3.68;88.67
67697;BME280;54486;51.442;6.778;2022-12-18T05:09:40;102652.25;;;-3.70;88.89
67697;BME280;54486;51.442;6.778;2022-12-18T05:12:07;102651.81;;;-3.87;88.86
67697;BME280;54486;51.442;6.778;2022-12-18T05:14:35;102661.50;;;-3.93;89.17
67697;BME280;54486;51.442;6.778;2022-12-18T05:17:02;102666.63;;;-4.03;88.81
67697;BME280;54486;51.442;6.778;2022-12-18T05:19:29;102659.63;;;-4.05;88.91
67697;BME280;54486;51.442;6.778;2022-12-18T05:21:57;102667.38;;;-4.04;89.15
67697;BME280;54486;51.442;6.778;2022-12-18T05:24:24;102664.09;;;-4.03;88.83
67697;BME280;54486;51.442;6.778;2022-12-18T05:26:51;102663.19;;;-4.13;88.93
67697;BME280;54486;51.442;6.778;2022-12-18T05:29:18;102669.06;;;-4.14;89.19
67697;BME280;54486;51.442;6.778;2022-12-18T05:31:47;102661.44;;;-4.24;89.25
67697;BME280;54486;51.442;6.778;2022-12-18T05:34:14;102663.84;;;-4.16;88.87
67697;BME280;54486;51.442;6.778;2022-12-18T05:36:41;102670.09;;;-4.22;88.80
67697;BME280;54486;51.442;6.778;2022-12-18T05:39:10;102677.09;;;-4.30;88.89
67697;BME280;54486;51.442;6.778;2022-12-18T05:41:37;102673.31;;;-4.35;89.31
67697;BME280;54486;51.442;6.778;2022-12-18T05:44:04;102674.31;;;-4.43;89.55
67697;BME280;54486;51.442;6.778;2022-12-18T05:46:32;102683.75;;;-4.42;89.59
67697;BME280;54486;51.442;6.778;2022-12-18T05:49:00;102683.75;;;-4.52;89.64
67697;BME280;54486;51.442;6.778;2022-12-18T05:51:27;102690.88;;;-4.48;89.70
67697;BME280;54486;51.442;6.778;2022-12-18T05:53:55;102685.78;;;-4.48;89.44
67697;BME280;54486;51.442;6.778;2022-12-18T05:56:23;102696.38;;;-4.54;89.22
67697;BME280;54486;51.442;6.778;2022-12-18T05:58:54;102699.66;;;-4.55;89.46
67697;BME280;54486;51.442;6.778;2022-12-18T06:01:24;102702.09;;;-4.56;89.65
67697;BME280;54486;51.442;6.778;2022-12-18T06:03:51;102713.78;;;-4.58;89.66
67697;BME280;54486;51.442;6.778;2022-12-18T06:06:21;102711.41;;;-4.57;89.75
67697;BME280;54486;51.442;6.778;2022-12-18T06:08:50;102715.84;;;-4.54;89.48
67697;BME280;54486;51.442;6.778;2022-12-18T06:11:20;102722.47;;;-4.56;89.53
67697;BME280;54486;51.442;6.778;2022-12-18T06:13:51;102727.81;;;-4.53;88.78
67697;BME280;54486;51.442;6.778;2022-12-18T06:16:24;102733.91;;;-4.61;89.13
67697;BME280;54486;51.442;6.778;2022-12-18T06:18:51;102735.56;;;-4.62;88.22
67697;BME280;54486;51.442;6.778;2022-12-18T06:21:19;102728.03;;;-4.70;88.23
67697;BME280;54486;51.442;6.778;2022-12-18T06:23:46;102721.91;;;-4.83;88.74
67697;BME280;54486;51.442;6.778;2022-12-18T06:26:14;102731.97;;;-4.84;89.03
67697;BME280;54486;51.442;6.778;2022-12-18T06:28:41;102716.66;;;-4.94;89.02
67697;BME280;54486;51.442;6.778;2022-12-18T06:31:09;102716.91;;;-4.91;89.06
67697;BME280;54486;51.442;6.778;2022-12-18T06:33:38;102713.78;;;-4.89;89.05
67697;BME280;54486;51.442;6.778;2022-12-18T06:36:08;102709.16;;;-4.93;89.06
67697;BME280;54486;51.442;6.778;2022-12-18T06:38:37;102712.47;;;-4.94;88.99
67697;BME280;54486;51.442;6.778;2022-12-18T06:43:36;102694.00;;;-5.01;88.86
67697;BME280;54486;51.442;6.778;2022-12-18T06:46:04;102693.38;;;-4.99;88.65
67697;BME280;54486;51.442;6.778;2022-12-18T06:48:32;102692.34;;;-4.91;87.92
67697;BME280;54486;51.442;6.778;2022-12-18T06:51:00;102689.78;;;-5.01;87.56
67697;BME280;54486;51.442;6.778;2022-12-18T06:53:28;102686.22;;;-5.03;87.35
67697;BME280;54486;51.442;6.778;2022-12-18T06:56:06;102680.88;;;-5.06;87.00
67697;BME280;54486;51.442;6.778;2022-12-18T06:58:37;102673.47;;;-5.13;86.92
67697;BME280;54486;51.442;6.778;2022-12-18T07:01:08;102672.22;;;-5.18;86.67
67697;BME280;54486;51.442;6.778;2022-12-18T07:03:36;102664.06;;;-5.24;86.38
67697;BME280;54486;51.442;6.778;2022-12-18T07:06:04;102666.38;;;-5.17;85.92
67697;BME280;54486;51.442;6.778;2022-12-18T07:08:32;102666.81;;;-5.31;86.18
67697;BME280;54486;51.442;6.778;2022-12-18T07:11:03;102664.50;;;-5.38;86.28
67697;BME280;54486;51.442;6.778;2022-12-18T07:13:30;102672.09;;;-5.48;87.07
67697;BME280;54486;51.442;6.778;2022-12-18T07:18:41;102684.28;;;-5.54;86.79
67697;BME280;54486;51.442;6.778;2022-12-18T07:21:13;102677.66;;;-5.62;87.21
67697;BME280;54486;51.442;6.778;2022-12-18T07:23:40;102678.63;;;-5.70;87.85
67697;BME280;54486;51.442;6.778;2022-12-18T07:26:10;102676.34;;;-5.67;88.09
67697;BME280;54486;51.442;6.778;2022-12-18T07:28:39;102674.16;;;-5.73;88.36
67697;BME280;54486;51.442;6.778;2022-12-18T07:31:11;102663.34;;;-5.70;88.16
67697;BME280;54486;51.442;6.778;2022-12-18T07:33:38;102669.59;;;-5.67;88.13
67697;BME280;54486;51.442;6.778;2022-12-18T07:36:08;102662.72;;;-5.68;88.00
67697;BME280;54486;51.442;6.778;2022-12-18T07:38:36;102661.88;;;-5.68;88.00
67697;BME280;54486;51.442;6.778;2022-12-18T07:41:12;102661.63;;;-5.61;87.77
67697;BME280;54486;51.442;6.778;2022-12-18T07:43:40;102657.78;;;-5.66;87.71
67697;BME280;54486;51.442;6.778;2022-12-18T07:46:09;102662.56;;;-5.79;87.67
67697;BME280;54486;51.442;6.778;2022-12-18T07:48:41;102675.81;;;-5.73;87.88
67697;BME280;54486;51.442;6.778;2022-12-18T07:51:11;102678.44;;;-5.53;87.41
67697;BME280;54486;51.442;6.778;2022-12-18T07:53:39;102674.31;;;-5.61;87.64
67697;BME280;54486;51.442;6.778;2022-12-18T07:56:09;102670.72;;;-5.73;87.96
67697;BME280;54486;51.442;6.778;2022-12-18T07:58:54;102670.34;;;-5.78;87.78
67697;BME280;54486;51.442;6.778;2022-12-18T08:01:21;102670.59;;;-5.75;88.30
67697;BME280;54486;51.442;6.778;2022-12-18T08:03:48;102666.41;;;-5.74;88.42
67697;BME280;54486;51.442;6.778;2022-12-18T08:06:18;102662.06;;;-5.75;88.59
67697;BME280;54486;51.442;6.778;2022-12-18T08:08:54;102643.38;;;-5.76;88.64
67697;BME280;54486;51.442;6.778;2022-12-18T08:11:23;102648.88;;;-5.71;88.63
67697;BME280;54486;51.442;6.778;2022-12-18T08:13:51;102641.66;;;-5.67;88.83
67697;BME280;54486;51.442;6.778;2022-12-18T08:16:19;102649.69;;;-5.62;88.61
67697;BME280;54486;51.442;6.778;2022-12-18T08:18:48;102651.97;;;-5.65;89.02
67697;BME280;54486;51.442;6.778;2022-12-18T08:21:18;102644.72;;;-5.61;88.64
67697;BME280;54486;51.442;6.778;2022-12-18T08:23:49;102629.13;;;-5.55;89.02
67697;BME280;54486;51.442;6.778;2022-12-18T08:26:19;102633.31;;;-5.56;88.71
67697;BME280;54486;51.442;6.778;2022-12-18T08:28:47;102621.13;;;-5.50;89.05
67697;BME280;54486;51.442;6.778;2022-12-18T08:31:17;102608.03;;;-5.44;88.57
67697;BME280;54486;51.442;6.778;2022-12-18T08:33:45;102602.69;;;-5.47;88.71
67697;BME280;54486;51.442;6.778;2022-12-18T08:36:14;102608.28;;;-5.41;89.12
67697;BME280;54486;51.442;6.778;2022-12-18T08:38:42;102604.50;;;-5.26;88.77
67697;BME280;54486;51.442;6.778;2022-12-18T08:41:10;102600.03;;;-5.28;89.20
67697;BME280;54486;51.442;6.778;2022-12-18T08:43:38;102603.25;;;-5.21;88.67
67697;BME280;54486;51.442;6.778;2022-12-18T08:46:26;102609.59;;;-5.26;88.74
67697;BME280;54486;51.442;6.778;2022-12-18T08:48:54;102614.69;;;-5.16;89.25
67697;BME280;54486;51.442;6.778;2022-12-18T08:51:22;102612.66;;;-5.10;89.17
67697;BME280;54486;51.442;6.778;2022-12-18T08:53:49;102611.69;;;-5.02;89.02
67697;BME280;54486;51.442;6.778;2022-12-18T08:56:16;102609.75;;;-4.94;89.45
67697;BME280;54486;51.442;6.778;2022-12-18T08:58:43;102613.69;;;-4.88;89.38
67697;BME280;54486;51.442;6.778;2022-12-18T09:01:11;102619.31;;;-4.82;89.63
67697;BME280;54486;51.442;6.778;2022-12-18T09:03:39;102599.97;;;-4.79;89.26
67697;BME280;54486;51.442;6.778;2022-12-18T09:06:07;102598.94;;;-4.71;89.27
67697;BME280;54486;51.442;6.778;2022-12-18T09:08:35;102595.38;;;-4.63;89.48
67697;BME280;54486;51.442;6.778;2022-12-18T09:11:11;102589.00;;;-4.58;89.86
67697;BME280;54486;51.442;6.778;2022-12-18T09:13:39;102584.16;;;-4.55;89.83
67697;BME280;54486;51.442;6.778;2022-12-18T09:16:07;102590.53;;;-4.50;90.03
67697;BME280;54486;51.442;6.778;2022-12-18T09:18:34;102596.38;;;-4.41;90.22
67697;BME280;54486;51.442;6.778;2022-12-18T09:21:08;102600.16;;;-4.36;90.13
67697;BME280;54486;51.442;6.778;2022-12-18T09:23:35;102585.63;;;-4.27;90.45
67697;BME280;54486;51.442;6.778;2022-12-18T09:26:03;102581.25;;;-4.18;90.55
67697;BME280;54486;51.442;6.778;2022-12-18T09:28:30;102579.56;;;-4.07;90.56
67697;BME280;54486;51.442;6.778;2022-12-18T09:30:58;102582.75;;;-4.00;90.64
67697;BME280;54486;51.442;6.778;2022-12-18T09:33:25;102580.66;;;-3.84;90.62
67697;BME280;54486;51.442;6.778;2022-12-18T09:35:52;102585.38;;;-3.66;90.46
67697;BME280;54486;51.442;6.778;2022-12-18T09:38:20;102587.13;;;-3.55;90.26
67697;BME280;54486;51.442;6.778;2022-12-18T09:40:53;102592.66;;;-3.39;90.23
67697;BME280;54486;51.442;6.778;2022-12-18T09:43:37;102590.22;;;-3.16;89.26
67697;BME280;54486;51.442;6.778;2022-12-18T09:48:59;102577.44;;;-2.83;87.87
67697;BME280;54486;51.442;6.778;2022-12-18T09:51:33;102550.22;;;-2.71;87.89
67697;BME280;54486;51.442;6.778;2022-12-18T09:54:06;102549.59;;;-2.56;88.01
67697;BME280;54486;51.442;6.778;2022-12-18T09:56:37;102536.72;;;-2.46;87.89
67697;BME280;54486;51.442;6.778;2022-12-18T09:59:05;102546.06;;;-2.24;86.93
67697;BME280;54486;51.442;6.778;2022-12-18T10:01:33;102559.81;;;-2.10;85.61
67697;BME280;54486;51.442;6.778;2022-12-18T10:04:10;102549.91;;;-1.94;84.66
67697;BME280;54486;51.442;6.778;2022-12-18T10:20:29;102538.56;;;-1.00;80.18
67697;BME280;54486;51.442;6.778;2022-12-18T10:25:49;102519.09;;;-0.59;76.76
67697;BME280;54486;51.442;6.778;2022-12-18T10:28:19;102515.97;;;-0.55;77.64
67697;BME280;54486;51.442;6.778;2022-12-18T10:30:46;102504.72;;;-0.43;77.35
67697;BME280;54486;51.442;6.778;2022-12-18T10:33:21;102508.47;;;-0.38;77.52
67697;BME280;54486;51.442;6.778;2022-12-18T10:35:51;102494.31;;;-0.06;74.33
67697;BME280;54486;51.442;6.778;2022-12-18T10:41:02;102495.38;;;0.11;71.65
67697;BME280;54486;51.442;6.778;2022-12-18T10:43:34;102496.31;;;0.26;71.46
67697;BME280;54486;51.442;6.778;2022-12-18T10:51:31;102483.53;;;0.41;72.05
67697;BME280;54486;51.442;6.778;2022-12-18T10:56:30;102477.03;;;0.61;70.55
67697;BME280;54486;51.442;6.778;2022-12-18T10:59:04;102472.75;;;0.61;71.39
67697;BME280;54486;51.442;6.778;2022-12-18T11:04:34;102459.31;;;0.65;71.68
67697;BME280;54486;51.442;6.778;2022-12-18T11:07:05;102465.28;;;0.79;69.74
67697;BME280;54486;51.442;6.778;2022-12-18T11:09:34;102457.66;;;0.95;69.27
67697;BME280;54486;51.442;6.778;2022-12-18T11:12:22;102456.69;;;0.93;68.71
67697;BME280;54486;51.442;6.778;2022-12-18T11:14:52;102455.28;;;0.98;69.48
67697;BME280;54486;51.442;6.778;2022-12-18T11:17:21;102454.84;;;1.05;68.88
67697;BME280;54486;51.442;6.778;2022-12-18T11:20:04;102442.69;;;1.17;68.51
67697;BME280;54486;51.442;6.778;2022-12-18T11:22:36;102440.34;;;1.22;68.23
67697;BME280;54486;51.442;6.778;2022-12-18T11:25:17;102439.66;;;1.24;67.36
67697;BME280;54486;51.442;6.778;2022-12-18T11:28:05;102445.16;;;1.30;67.91
67697;BME280;54486;51.442;6.778;2022-12-18T11:30:35;102430.06;;;1.36;67.96
67697;BME280;54486;51.442;6.778;2022-12-18T11:40:42;102401.38;;;1.59;67.93
67697;BME280;54486;51.442;6.778;2022-12-18T11:43:25;102395.06;;;1.54;67.47
67697;BME280;54486;51.442;6.778;2022-12-18T11:45:59;102398.78;;;1.59;67.03
67697;BME280;54486;51.442;6.778;2022-12-18T11:48:43;102399.47;;;1.72;65.08
67697;BME280;54486;51.442;6.778;2022-12-18T11:51:18;102394.16;;;1.69;66.33
67697;BME280;54486;51.442;6.778;2022-12-18T11:53:53;102394.16;;;1.69;65.40
67697;BME280;54486;51.442;6.778;2022-12-18T11:56:43;102394.38;;;1.73;66.73
67697;BME280;54486;51.442;6.778;2022-12-18T11:59:43;102398.34;;;1.83;67.13
67697;BME280;54486;51.442;6.778;2022-12-18T12:02:54;102403.97;;;1.92;65.86
67697;BME280;54486;51.442;6.778;2022-12-18T12:19:41;102394.25;;;1.86;65.81
67697;BME280;54486;51.442;6.778;2022-12-18T12:22:32;102385.00;;;1.90;65.03
67697;BME280;54486;51.442;6.778;2022-12-18T12:25:37;102376.47;;;1.91;64.33
67697;BME280;54486;51.442;6.778;2022-12-18T12:31:08;102363.66;;;1.92;64.84
67697;BME280;54486;51.442;6.778;2022-12-18T12:39:18;102371.66;;;1.97;64.84
67697;BME280;54486;51.442;6.778;2022-12-18T12:41:46;102360.72;;;1.85;64.60
67697;BME280;54486;51.442;6.778;2022-12-18T12:44:38;102357.16;;;1.83;64.82
67697;BME280;54486;51.442;6.778;2022-12-18T12:47:14;102353.78;;;1.84;64.33
67697;BME280;54486;51.442;6.778;2022-12-18T12:49:43;102347.03;;;1.86;63.86
67697;BME280;54486;51.442;6.778;2022-12-18T12:52:25;102347.59;;;1.80;64.07
67697;BME280;54486;51.442;6.778;2022-12-18T12:54:55;102340.13;;;1.85;63.23
67697;BME280;54486;51.442;6.778;2022-12-18T12:58:29;102355.22;;;1.79;63.87
67697;BME280;54486;51.442;6.778;2022-12-18T13:00:44;102359.25;;;1.74;64.02
67697;BME280;54486;51.442;6.778;2022-12-18T13:06:08;102349.91;;;1.76;64.23
67697;BME280;54486;51.442;6.778;2022-12-18T13:08:59;102346.69;;;1.80;64.07
67697;BME280;54486;51.442;6.778;2022-12-18T13:11:40;102344.91;;;1.79;64.13
67697;BME280;54486;51.442;6.778;2022-12-18T13:14:37;102336.72;;;1.70;63.76
67697;BME280;54486;51.442;6.778;2022-12-18T13:19:43;102323.84;;;1.70;64.69
67697;BME280;54486;51.442;6.778;2022-12-18T13:25:36;102310.19;;;1.71;63.69
67697;BME280;54486;51.442;6.778;2022-12-18T13:28:21;102317.03;;;1.70;64.14
67697;BME280;54486;51.442;6.778;2022-12-18T13:30:57;102325.63;;;1.71;63.93
67697;BME280;54486;51.442;6.778;2022-12-18T13:36:09;102289.63;;;1.71;63.10
67697;BME280;54486;51.442;6.778;2022-12-18T13:38:42;102285.78;;;1.63;63.72
67697;BME280;54486;51.442;6.778;2022-12-18T13:43:47;102282.06;;;1.57;63.27
67697;BME280;54486;51.442;6.778;2022-12-18T13:46:21;102280.28;;;1.56;64.28
67697;BME280;54486;51.442;6.778;2022-12-18T13:48:53;102276.59;;;1.51;64.27
67697;BME280;54486;51.442;6.778;2022-12-18T13:51:23;102273.38;;;1.55;62.57
67697;BME280;54486;51.442;6.778;2022-12-18T13:53:55;102274.00;;;1.51;63.13
67697;BME280;54486;51.442;6.778;2022-12-18T13:56:30;102264.69;;;1.53;63.09
67697;BME280;54486;51.442;6.778;2022-12-18T14:01:54;102268.06;;;1.52;63.25
67697;BME280;54486;51.442;6.778;2022-12-18T14:04:34;102264.34;;;1.47;62.99
67697;BME280;54486;51.442;6.778;2022-12-18T14:09:35;102260.66;;;1.42;63.29
67697;BME280;54486;51.442;6.778;2022-12-18T14:12:06;102263.09;;;1.39;63.52
67697;BME280;54486;51.442;6.778;2022-12-18T14:14:52;102274.31;;;1.41;63.75
67697;BME280;54486;51.442;6.778;2022-12-18T14:17:22;102267.25;;;1.37;62.43
67697;BME280;54486;51.442;6.778;2022-12-18T14:19:50;102243.31;;;1.38;62.98
67697;BME280;54486;51.442;6.778;2022-12-18T14:22:24;102244.81;;;1.35;64.05
67697;BME280;54486;51.442;6.778;2022-12-18T14:30:38;102232.69;;;1.32;63.92
67697;BME280;54486;51.442;6.778;2022-12-18T14:33:13;102223.88;;;1.27;64.10
67697;BME280;54486;51.442;6.778;2022-12-18T14:35:51;102225.59;;;1.28;64.00
67697;BME280;54486;51.442;6.778;2022-12-18T14:38:22;102228.03;;;1.25;63.24
67697;BME280;54486;51.442;6.778;2022-12-18T14:41:04;102227.56;;;1.32;63.20
67697;BME280;54486;51.442;6.778;2022-12-18T14:43:34;102231.59;;;1.27;63.34
67697;BME280;54486;51.442;6.778;2022-12-18T14:46:02;102230.75;;;1.28;63.20
67697;BME280;54486;51.442;6.778;2022-12-18T14:51:14;102216.63;;;1.20;63.45
67697;BME280;54486;51.442;6.778;2022-12-18T14:53:47;102213.41;;;1.24;63.01
67697;BME280;54486;51.442;6.778;2022-12-18T14:56:23;102204.66;;;1.21;62.97
67697;BME280;54486;51.442;6.778;2022-12-18T14:58:54;102211.97;;;1.29;62.09
67697;BME280;54486;51.442;6.778;2022-12-18T15:01:25;102204.56;;;1.19;63.14
67697;BME280;54486;51.442;6.778;2022-12-18T15:03:55;102213.25;;;1.21;62.66
67697;BME280;54486;51.442;6.778;2022-12-18T15:06:42;102212.22;;;1.18;62.88
67697;BME280;54486;51.442;6.778;2022-12-18T15:09:22;102213.47;;;1.10;63.09
67697;BME280;54486;51.442;6.778;2022-12-18T15:11:55;102206.91;;;1.15;62.70
67697;BME280;54486;51.442;6.778;2022-12-18T15:14:33;102211.31;;;1.17;63.38
67697;BME280;54486;51.442;6.778;2022-12-18T15:17:13;102205.84;;;1.11;63.30
67697;BME280;54486;51.442;6.778;2022-12-18T15:19:42;102200.38;;;1.05;63.55
67697;BME280;54486;51.442;6.778;2022-12-18T15:22:26;102196.84;;;1.03;63.44